Time;durP1;ratioP1;P1;durP2;ratioP2;P2;SDS_P1;SDS_P2;PMS_P1;PMS_P2;Temp;Humidity;BMP_temperature;BMP_pressure;BME280_temperature;BME280_humidity;BME280_pressure;Samples;Min_cycle;Max_cycle;Signal;HPM_P1;HPM_P2
2022/06/10 00:01:27;;;;;;;5.78;4.40;;;;;;;15.68;63.36;101250.41;7394884;19;20027;-66
2022/06/10 00:03:56;;;;;;;5.05;4.07;;;;;;;15.62;63.73;101248.88;7395507;19;20018;-66
2022/06/10 00:06:24;;;;;;;4.10;3.70;;;;;;;15.63;63.95;101265.59;7394753;19;20010;-67
2022/06/10 00:08:53;;;;;;;6.45;4.70;;;;;;;15.61;63.82;101259.50;7396938;19;20022;-67
2022/06/10 00:11:21;;;;;;;6.13;3.95;;;;;;;15.62;64.13;101271.81;7394768;19;20502;-67
2022/06/10 00:13:51;;;;;;;5.72;3.92;;;;;;;15.60;64.02;101269.19;7396856;19;20015;-67
2022/06/10 00:16:22;;;;;;;4.80;4.15;;;;;;;15.57;64.13;101266.69;7395016;19;20023;-67
2022/06/10 00:18:54;;;;;;;4.25;3.85;;;;;;;15.54;64.25;101269.41;7395550;19;20031;-67
2022/06/10 00:21:25;;;;;;;4.75;3.58;;;;;;;15.51;64.89;101284.53;7394597;19;20006;-66
2022/06/10 00:23:53;;;;;;;5.15;4.53;;;;;;;15.44;64.90;101279.47;7396897;19;20078;-67
2022/06/10 00:26:22;;;;;;;4.10;3.67;;;;;;;15.40;65.25;101283.09;7395045;19;20035;-67
2022/06/10 00:28:51;;;;;;;4.72;3.65;;;;;;;15.36;65.21;101285.91;7396503;19;20034;-66
2022/06/10 00:31:20;;;;;;;5.03;3.92;;;;;;;15.35;65.37;101290.31;7396115;19;20484;-66
2022/06/10 00:33:49;;;;;;;6.97;4.03;;;;;;;15.32;65.52;101283.34;7394905;19;20066;-66
2022/06/10 00:36:20;;;;;;;4.03;3.60;;;;;;;15.32;65.30;101293.06;7394319;19;20383;-66
2022/06/10 00:38:49;;;;;;;4.82;3.80;;;;;;;15.31;65.68;101296.63;7396463;19;20022;-66
2022/06/10 00:41:17;;;;;;;3.75;3.45;;;;;;;15.29;65.57;101301.09;7393846;19;20383;-67
2022/06/10 00:43:46;;;;;;;4.60;4.00;;;;;;;15.26;65.74;101303.84;7395978;19;20015;-66
2022/06/10 00:46:29;;;;;;;3.28;2.97;;;;;;;15.22;66.32;101304.88;7394176;19;20035;-66
2022/06/10 00:49:04;;;;;;;3.63;3.33;;;;;;;15.17;65.89;101312.94;7395992;19;20014;-68
2022/06/10 00:51:40;;;;;;;4.70;3.65;;;;;;;15.14;66.67;101315.69;7394007;19;20036;-66
2022/06/10 00:54:17;;;;;;;3.45;3.15;;;;;;;15.11;66.34;101323.69;7396183;19;20020;-67
2022/06/10 00:56:50;;;;;;;4.65;3.10;;;;;;;15.06;66.36;101322.97;7393495;19;20018;-66
2022/06/10 00:59:24;;;;;;;3.50;2.77;;;;;;;15.02;66.33;101324.00;7395955;19;20022;-67
2022/06/10 01:01:56;;;;;;;3.72;2.53;;;;;;;15.00;66.10;101331.97;7393963;19;20085;-67
2022/06/10 01:04:26;;;;;;;2.92;2.58;;;;;;;14.99;65.81;101331.09;7395469;19;20116;-66
2022/06/10 01:06:57;;;;;;;4.47;3.33;;;;;;;15.00;66.16;101337.25;7393160;19;20508;-67
2022/06/10 01:09:27;;;;;;;4.22;3.83;;;;;;;14.99;66.00;101332.88;7394957;19;20015;-66
2022/06/10 01:12:21;;;;;;;5.97;3.85;;;;;;;14.99;66.39;101335.53;7394696;19;20039;-67
2022/06/10 01:15:04;;;;;;;5.32;3.95;;;;;;;14.98;66.58;101339.06;7395122;19;20023;-66
2022/06/10 01:17:46;;;;;;;5.95;4.07;;;;;;;14.96;66.13;101343.53;7393499;19;20042;-66
2022/06/10 01:20:23;;;;;;;4.47;4.07;;;;;;;14.92;66.31;101348.03;7393347;19;20027;-66
2022/06/10 01:23:24;;;;;;;7.03;3.72;;;;;;;14.90;66.55;101352.53;7393587;19;20396;-67
2022/06/10 01:26:27;;;;;;;5.25;4.22;;;;;;;14.85;67.18;101345.63;7395125;19;20363;-67
2022/06/10 01:29:29;;;;;;;5.47;4.47;;;;;;;14.79;67.53;101349.34;7395042;19;20027;-67
2022/06/10 01:32:05;;;;;;;7.07;4.13;;;;;;;14.74;67.48;101357.38;7392719;19;20045;-66
2022/06/10 01:34:41;;;;;;;4.35;3.95;;;;;;;14.69;67.44;101359.28;7394905;19;20039;-67
2022/06/10 01:37:15;;;;;;;5.60;4.07;;;;;;;14.64;67.44;101358.53;7394032;19;20022;-67
2022/06/10 01:39:50;;;;;;;4.78;3.47;;;;;;;14.58;67.42;101361.34;7394861;19;20026;-67
2022/06/10 01:42:29;;;;;;;4.47;4.07;;;;;;;14.54;67.73;101371.13;7392820;19;20011;-66
2022/06/10 01:45:14;;;;;;;3.58;3.28;;;;;;;14.48;67.99;101369.53;7393799;19;20485;-66
2022/06/10 01:47:50;;;;;;;4.25;3.85;;;;;;;14.45;67.92;101371.41;7394242;19;20028;-67
2022/06/10 01:50:23;;;;;;;3.95;3.03;;;;;;;14.41;68.18;101381.16;7392347;19;20031;-66
2022/06/10 01:52:58;;;;;;;4.65;2.97;;;;;;;14.36;68.15;101377.81;7392655;19;20039;-66
2022/06/10 01:55:34;;;;;;;4.00;3.60;;;;;;;14.31;68.33;101374.41;7392065;19;20118;-66
2022/06/10 01:58:09;;;;;;;4.50;4.10;;;;;;;14.27;68.44;101391.25;7391883;19;20014;-67
2022/06/10 02:00:41;;;;;;;4.40;3.55;;;;;;;14.23;68.28;101397.50;7392041;19;20028;-67
2022/06/10 02:03:21;;;;;;;3.63;3.33;;;;;;;14.19;68.66;101396.72;7394098;19;20014;-66
2022/06/10 02:05:56;;;;;;;4.80;3.65;;;;;;;14.15;68.58;101406.50;7400764;19;20023;-67
2022/06/10 02:08:29;;;;;;;4.82;3.20;;;;;;;14.12;68.45;101398.66;7401775;19;20010;-68
2022/06/10 02:11:04;;;;;;;4.33;3.07;;;;;;;14.09;68.62;101398.75;7402755;19;20011;-67
2022/06/10 02:13:37;;;;;;;3.28;2.92;;;;;;;14.04;68.70;101408.56;7400877;19;20421;-67
2022/06/10 02:16:10;;;;;;;2.83;2.60;;;;;;;14.01;68.45;101406.88;7397687;19;20521;-67
2022/06/10 02:18:52;;;;;;;3.00;2.67;;;;;;;13.94;68.73;101407.03;7397996;19;20018;-67
2022/06/10 02:21:26;;;;;;;2.78;2.45;;;;;;;13.93;68.40;101416.72;7398107;19;20028;-66
2022/06/10 02:24:14;;;;;;;4.60;2.60;;;;;;;13.91;68.44;101418.53;7398003;19;20007;-66
2022/06/10 02:26:43;;;;;;;3.00;2.45;;;;;;;13.88;68.47;101423.88;7397462;19;20014;-66
2022/06/10 02:29:19;;;;;;;6.15;2.53;;;;;;;13.85;68.47;101413.44;7400451;19;20028;-67
2022/06/10 02:31:53;;;;;;;4.82;2.63;;;;;;;13.81;68.49;101419.66;7398330;19;20038;-66
2022/06/10 02:34:24;;;;;;;3.03;2.72;;;;;;;13.77;68.73;101413.59;7397133;19;20027;-67
2022/06/10 02:36:57;;;;;;;3.60;2.53;;;;;;;13.74;68.73;101424.22;7397535;19;20389;-67
2022/06/10 02:39:33;;;;;;;3.40;2.55;;;;;;;13.71;68.67;101429.59;7399310;19;20031;-67
2022/06/10 02:42:06;;;;;;;2.72;2.22;;;;;;;13.70;68.76;101427.84;7396937;19;20042;-67
2022/06/10 02:44:47;;;;;;;3.40;2.70;;;;;;;13.67;68.82;101425.28;7397897;19;20027;-67
2022/06/10 02:47:22;;;;;;;2.90;2.35;;;;;;;13.66;68.87;101431.44;7399794;19;20019;-67
2022/06/10 02:49:54;;;;;;;4.55;3.05;;;;;;;13.65;68.89;101441.13;7400153;19;20010;-67
2022/06/10 02:52:25;;;;;;;20.65;11.55;;;;;;;13.63;68.77;101448.19;7397941;19;20367;-67
2022/06/10 02:54:54;;;;;;;6.90;4.70;;;;;;;13.62;69.02;101446.50;7396738;19;20480;-67
2022/06/10 03:01:11;;;;;;;4.05;3.50;;;;;;;13.60;69.08;101456.19;7396905;19;20031;-67
2022/06/10 03:03:10;;;;;;;3.47;2.90;;;;;;;13.56;69.42;101462.44;7396893;19;20018;-67
2022/06/10 03:05:47;;;;;;;3.85;3.10;;;;;;;13.52;69.38;101461.66;7399579;19;20035;-67
2022/06/10 03:08:25;;;;;;;3.95;2.83;;;;;;;13.51;69.52;101467.81;7399421;19;20018;-67
2022/06/10 03:11:05;;;;;;;4.07;3.13;;;;;;;13.46;69.92;101459.16;7396411;19;20015;-67
2022/06/10 03:13:53;;;;;;;4.10;3.42;;;;;;;13.42;70.09;101473.31;7395583;19;20018;-67
2022/06/10 03:16:36;;;;;;;5.57;3.70;;;;;;;13.38;70.21;101473.41;7396923;19;20018;-67
2022/06/10 03:19:15;;;;;;;4.15;3.75;;;;;;;13.32;70.41;101480.50;7395946;19;20389;-67
2022/06/10 03:21:57;;;;;;;4.05;3.22;;;;;;;13.29;70.60;101487.59;7396631;19;20090;-67
2022/06/10 03:24:35;;;;;;;10.90;7.35;;;;;;;13.26;70.47;101477.13;7398677;19;20014;-67
2022/06/10 03:27:09;;;;;;;3.85;3.45;;;;;;;13.24;70.48;101490.31;7398388;19;20027;-67
2022/06/10 03:29:47;;;;;;;4.88;3.30;;;;;;;13.24;70.70;101492.09;7396588;19;20014;-67
2022/06/10 03:32:23;;;;;;;3.45;3.15;;;;;;;13.22;70.86;101493.88;7395927;19;20085;-67
2022/06/10 03:34:56;;;;;;;5.03;3.30;;;;;;;13.22;70.75;101496.53;7397667;19;20018;-66
2022/06/10 03:37:29;;;;;;;4.15;3.50;;;;;;;13.19;70.74;101503.63;7394879;19;20581;-67
2022/06/10 03:39:59;;;;;;;4.18;3.60;;;;;;;13.16;71.09;101501.03;7394383;19;20010;-66
2022/06/10 03:42:29;;;;;;;3.78;3.47;;;;;;;13.14;71.15;101512.50;7396028;19;20096;-66
2022/06/10 03:45:00;;;;;;;4.57;3.63;;;;;;;13.13;71.43;101518.66;7395631;19;20081;-66
2022/06/10 03:47:33;;;;;;;5.68;3.60;;;;;;;13.11;71.53;101516.06;7397542;19;20032;-66
2022/06/10 03:50:06;;;;;;;6.28;3.63;;;;;;;13.13;71.44;101521.28;7397658;19;20022;-66
2022/06/10 03:52:39;;;;;;;3.88;3.35;;;;;;;13.13;71.43;101522.19;7395273;19;20022;-67
2022/06/10 03:55:11;;;;;;;3.80;3.47;;;;;;;13.13;71.60;101522.19;7394836;19;20434;-66
2022/06/10 03:57:40;;;;;;;4.57;3.00;;;;;;;13.16;71.71;101529.16;7395133;19;20032;-67
2022/06/10 04:00:10;;;;;;;3.17;2.90;;;;;;;13.15;71.69;101528.25;7394896;19;20023;-66
2022/06/10 04:02:38;;;;;;;4.13;3.40;;;;;;;13.16;71.97;101535.28;7394538;19;20035;-66
2022/06/10 04:05:08;;;;;;;3.78;3.33;;;;;;;13.17;71.96;101530.91;7394307;19;20020;-66
2022/06/10 04:07:39;;;;;;;7.57;4.72;;;;;;;13.18;71.77;101533.50;7395948;19;20023;-66
2022/06/10 04:10:10;;;;;;;3.50;3.20;;;;;;;13.19;71.78;101532.59;7396709;19;20036;-66
2022/06/10 04:12:39;;;;;;;5.15;3.65;;;;;;;13.23;72.13;101535.16;7394428;19;20018;-67
2022/06/10 04:15:09;;;;;;;4.30;2.92;;;;;;;13.25;72.02;101538.63;7395342;19;20426;-67
2022/06/10 04:17:37;;;;;;;3.33;3.03;;;;;;;13.27;72.09;101548.25;7394184;19;20031;-67
2022/06/10 04:20:07;;;;;;;7.10;4.45;;;;;;;13.29;72.14;101540.31;7396006;19;20019;-66
2022/06/10 04:22:39;;;;;;;6.07;3.40;;;;;;;13.32;72.20;101545.50;7395182;19;20019;-67
2022/06/10 04:25:08;;;;;;;8.35;3.53;;;;;;;13.34;72.06;101549.88;7396044;19;20028;-67
2022/06/10 04:27:36;;;;;;;8.35;4.10;;;;;;;13.39;72.09;101556.84;7395254;19;20427;-67
2022/06/10 04:30:05;;;;;;;4.38;3.00;;;;;;;13.39;72.48;101547.16;7395510;19;20491;-66
2022/06/10 04:32:34;;;;;;;5.05;3.78;;;;;;;13.42;72.53;101552.38;7392937;19;20035;-68
2022/06/10 04:35:02;;;;;;;5.88;3.67;;;;;;;13.46;72.27;101554.03;7394639;19;20011;-67
2022/06/10 04:37:31;;;;;;;5.47;3.70;;;;;;;13.51;72.22;101546.06;7393504;19;20035;-67
2022/06/10 04:40:02;;;;;;;4.82;3.20;;;;;;;13.55;72.36;101552.09;7395420;19;20015;-67
2022/06/10 04:42:30;;;;;;;6.78;3.40;;;;;;;13.60;72.17;101560.81;7394105;19;20022;-67
2022/06/10 04:44:59;;;;;;;5.32;2.97;;;;;;;13.62;72.07;101558.97;7395247;19;20166;-67
2022/06/10 04:47:28;;;;;;;4.07;3.10;;;;;;;13.67;72.15;101557.13;7393094;19;20011;-67
2022/06/10 04:49:59;;;;;;;4.93;2.92;;;;;;;13.73;72.13;101570.16;7393422;19;20035;-67
2022/06/10 04:52:29;;;;;;;4.80;2.92;;;;;;;13.79;71.93;101574.47;7393869;19;20018;-67
2022/06/10 04:54:57;;;;;;;2.88;2.50;;;;;;;13.83;71.76;101573.47;7392640;19;20018;-68
2022/06/10 04:57:29;;;;;;;5.75;3.50;;;;;;;13.89;71.71;101577.72;7392012;19;20089;-67
2022/06/10 04:59:57;;;;;;;4.65;2.65;;;;;;;13.94;71.62;101575.84;7391549;19;20021;-68
2022/06/10 05:02:26;;;;;;;3.78;2.60;;;;;;;13.96;71.42;101577.59;7392585;19;20082;-66
2022/06/10 05:04:54;;;;;;;6.25;2.90;;;;;;;14.00;71.57;101578.38;7391187;19;20090;-67
2022/06/10 05:07:23;;;;;;;5.60;2.88;;;;;;;14.05;71.42;101581.75;7390949;19;20475;-67
2022/06/10 05:09:51;;;;;;;5.38;2.40;;;;;;;14.10;71.35;101581.66;7393041;19;20031;-71
2022/06/10 05:12:20;;;;;;;4.50;2.70;;;;;;;14.11;71.39;101576.34;7391457;19;20046;-67
2022/06/10 05:14:51;;;;;;;4.88;2.65;;;;;;;14.18;71.27;101583.22;7393042;19;20042;-67
2022/06/10 05:17:19;;;;;;;6.28;3.25;;;;;;;14.24;71.47;101589.25;7392398;19;20036;-67
2022/06/10 05:19:48;;;;;;;5.45;3.28;;;;;;;14.27;71.30;101589.22;7391563;19;20034;-68
2022/06/10 05:22:17;;;;;;;8.75;4.03;;;;;;;14.31;71.36;101593.50;7390652;19;20023;-66
2022/06/10 05:24:46;;;;;;;5.25;2.90;;;;;;;14.34;71.20;101588.13;7393384;19;20082;-67
2022/06/10 05:27:14;;;;;;;5.10;2.75;;;;;;;14.39;71.07;101598.59;7391895;19;20086;-66
2022/06/10 05:29:43;;;;;;;3.88;2.50;;;;;;;14.43;70.78;101594.97;7393758;19;20038;-66
2022/06/10 05:32:14;;;;;;;3.42;2.33;;;;;;;14.49;71.11;101597.47;7391291;19;20040;-66
2022/06/10 05:34:48;;;;;;;4.65;2.40;;;;;;;14.54;70.52;101603.50;7390945;19;20079;-66
2022/06/10 05:37:20;;;;;;;4.32;2.47;;;;;;;14.57;70.63;101602.53;7390973;19;20046;-66
2022/06/10 05:39:49;;;;;;;5.22;2.60;;;;;;;14.64;70.57;101607.66;7397912;19;20023;-67
2022/06/10 05:42:17;;;;;;;4.85;2.70;;;;;;;14.70;70.42;101605.78;7398992;19;20019;-67
2022/06/10 05:44:48;;;;;;;4.90;2.10;;;;;;;14.75;70.33;101610.06;7400343;19;20027;-67
2022/06/10 05:47:22;;;;;;;3.75;1.95;;;;;;;14.79;70.34;101609.06;7398204;19;20078;-67
2022/06/10 05:49:53;;;;;;;3.00;1.88;;;;;;;14.82;69.75;101616.91;7398072;19;20026;-67
2022/06/10 05:52:26;;;;;;;5.25;2.40;;;;;;;14.87;69.31;101605.38;7398724;19;20015;-67
2022/06/10 05:54:57;;;;;;;3.38;2.45;;;;;;;14.92;69.40;101608.75;7397513;19;20014;-67
2022/06/10 05:57:26;;;;;;;6.53;2.90;;;;;;;14.97;69.71;101617.41;7399563;19;20015;-67
2022/06/10 05:59:57;;;;;;;3.42;2.40;;;;;;;15.02;69.65;101604.94;7397993;19;20079;-67
2022/06/10 06:02:29;;;;;;;5.47;3.10;;;;;;;15.08;69.34;101615.34;7397903;19;20044;-67
2022/06/10 06:04:58;;;;;;;6.13;3.28;;;;;;;15.12;69.53;101621.44;7397236;19;20481;-67
2022/06/10 06:07:31;;;;;;;7.22;3.15;;;;;;;15.21;69.42;101625.59;7397255;19;20035;-67
2022/06/10 06:09:59;;;;;;;4.40;2.38;;;;;;;15.25;69.18;101627.25;7399964;19;20014;-67
2022/06/10 06:12:28;;;;;;;3.50;1.90;;;;;;;15.29;68.84;101624.50;7398713;19;20082;-66
2022/06/10 06:14:56;;;;;;;5.90;2.10;;;;;;;15.36;68.54;101626.97;7397565;19;20031;-69
2022/06/10 06:17:28;;;;;;;4.72;2.25;;;;;;;15.42;68.44;101630.31;7397515;19;20082;-69
2022/06/10 06:19:56;;;;;;;6.40;2.25;;;;;;;15.48;68.04;101630.13;7400050;19;20022;-68
2022/06/10 06:22:25;;;;;;;6.00;1.67;;;;;;;15.55;67.54;101636.09;7396786;19;20387;-68
2022/06/10 06:24:53;;;;;;;5.85;1.83;;;;;;;15.61;66.69;101624.50;7397147;19;20014;-69
2022/06/10 06:27:22;;;;;;;4.95;2.47;;;;;;;15.66;66.26;101630.53;7397009;19;20082;-69
2022/06/10 06:29:51;;;;;;;4.82;1.67;;;;;;;15.72;65.92;101627.69;7396088;19;20022;-69
2022/06/10 06:32:19;;;;;;;5.18;1.67;;;;;;;15.77;65.28;101623.13;7396278;19;20039;-69
2022/06/10 06:34:51;;;;;;;3.63;1.60;;;;;;;15.86;64.81;101626.44;7395631;19;20357;-69
2022/06/10 06:37:26;;;;;;;3.78;1.60;;;;;;;15.91;64.43;101630.69;7397686;19;20022;-69
2022/06/10 06:39:54;;;;;;;3.28;1.38;;;;;;;15.98;64.25;101644.59;7397812;19;20478;-69
2022/06/10 06:42:23;;;;;;;5.72;1.67;;;;;;;16.05;63.60;101646.16;7397709;19;20040;-68
2022/06/10 06:44:52;;;;;;;3.83;1.48;;;;;;;16.11;63.67;101640.69;7396826;19;20022;-68
2022/06/10 06:47:20;;;;;;;5.22;1.80;;;;;;;16.19;63.03;101644.84;7396843;19;20492;-68
2022/06/10 06:49:51;;;;;;;3.35;1.30;;;;;;;16.27;62.62;101642.84;7395569;19;20014;-69
2022/06/10 06:52:20;;;;;;;4.50;1.73;;;;;;;16.34;61.89;101639.09;7397348;19;20401;-68
2022/06/10 06:54:49;;;;;;;3.33;1.38;;;;;;;16.41;61.93;101645.06;7398571;19;20022;-69
2022/06/10 06:57:18;;;;;;;4.25;1.40;;;;;;;16.48;61.54;101643.97;7397554;19;20027;-69
2022/06/10 06:59:46;;;;;;;5.70;1.45;;;;;;;16.54;61.60;101633.16;7398529;19;20041;-68
2022/06/10 07:02:15;;;;;;;5.82;1.50;;;;;;;16.61;61.38;101633.81;7397199;19;20027;-68
2022/06/10 07:04:43;;;;;;;4.68;1.45;;;;;;;16.69;60.73;101639.72;7398808;19;20035;-68
2022/06/10 07:07:15;;;;;;;3.47;1.83;;;;;;;16.74;60.28;101635.16;7398495;19;20023;-68
2022/06/10 07:09:43;;;;;;;5.45;1.77;;;;;;;16.81;59.98;101637.56;7398886;19;20021;-68
2022/06/10 07:12:12;;;;;;;5.93;1.50;;;;;;;16.86;59.34;101643.63;7395599;19;20022;-69
2022/06/10 07:14:41;;;;;;;3.05;1.35;;;;;;;16.88;59.46;101634.69;7398132;19;20082;-69
2022/06/10 07:17:11;;;;;;;4.05;1.33;;;;;;;16.93;59.44;101640.72;7395395;19;20380;-69
2022/06/10 07:19:40;;;;;;;5.50;2.10;;;;;;;16.99;59.18;101637.00;7398226;19;20086;-69
2022/06/10 07:22:09;;;;;;;3.92;1.80;;;;;;;17.07;59.05;101634.97;7395786;19;20023;-69
2022/06/10 07:24:41;;;;;;;7.70;1.90;;;;;;;17.14;59.10;101640.03;7397411;19;20501;-69
2022/06/10 07:27:09;;;;;;;5.13;1.88;;;;;;;17.21;59.03;101633.59;7396707;19;20025;-69
2022/06/10 07:29:38;;;;;;;4.68;1.83;;;;;;;17.26;59.04;101631.63;7397197;19;20014;-69
2022/06/10 07:32:07;;;;;;;5.00;1.55;;;;;;;17.33;58.50;101633.16;7394910;19;20410;-69
2022/06/10 07:34:36;;;;;;;5.25;2.05;;;;;;;17.38;58.06;101633.00;7394793;19;20006;-69
2022/06/10 07:37:06;;;;;;;5.35;1.92;;;;;;;17.43;58.09;101639.84;7396740;19;20023;-69
2022/06/10 07:39:35;;;;;;;5.00;1.67;;;;;;;17.49;57.33;101635.25;7394654;19;20397;-69
2022/06/10 07:42:11;;;;;;;7.25;1.90;;;;;;;17.53;57.31;101636.88;7396104;19;20015;-69
2022/06/10 07:44:41;;;;;;;6.13;1.75;;;;;;;17.57;57.20;101636.69;7397261;19;20015;-68
2022/06/10 07:47:12;;;;;;;4.53;2.00;;;;;;;17.64;56.27;101637.34;7394968;19;20037;-68
2022/06/10 07:49:41;;;;;;;5.70;1.92;;;;;;;17.69;56.95;101631.84;7395361;19;20078;-69
2022/06/10 07:52:10;;;;;;;5.65;1.90;;;;;;;17.74;56.91;101630.78;7395646;19;20035;-68
2022/06/10 07:54:39;;;;;;;8.73;1.75;;;;;;;17.82;56.40;101633.13;7395332;19;20023;-68
2022/06/10 07:57:12;;;;;;;6.43;1.67;;;;;;;17.88;55.83;101637.31;7394474;19;20086;-65
2022/06/10 07:59:42;;;;;;;9.77;2.23;;;;;;;17.95;55.92;101644.16;7396467;19;20496;-65
2022/06/10 08:02:11;;;;;;;3.35;1.65;;;;;;;18.03;55.65;101635.91;7392693;19;20015;-65
2022/06/10 08:04:40;;;;;;;7.35;2.00;;;;;;;18.07;54.82;101633.09;7394834;19;20026;-66
2022/06/10 08:07:08;;;;;;;6.32;2.00;;;;;;;18.16;55.06;101638.94;7396029;19;20476;-66
2022/06/10 08:09:37;;;;;;;6.50;1.98;;;;;;;18.23;54.90;101635.97;7396181;19;20520;-66
2022/06/10 08:12:06;;;;;;;6.55;1.83;;;;;;;18.33;54.69;101641.78;7395572;19;20026;-66
2022/06/10 08:14:37;;;;;;;5.78;1.65;;;;;;;18.42;54.25;101637.06;7395797;19;20031;-66
2022/06/10 08:17:07;;;;;;;15.35;2.83;;;;;;;18.54;53.15;101633.91;7393972;19;20007;-66
2022/06/10 08:19:36;;;;;;;7.68;1.42;;;;;;;18.62;52.87;101637.09;7396002;19;20086;-65
2022/06/10 08:24:45;;;;;;;6.72;1.55;;;;;;;18.66;51.24;101651.13;7395718;19;20018;-66
2022/06/10 08:27:14;;;;;;;4.93;1.13;;;;;;;18.71;50.40;101647.31;7395871;19;20034;-64
2022/06/10 08:29:46;;;;;;;5.07;1.35;;;;;;;18.75;48.77;101639.25;7395144;19;20035;-65
2022/06/10 08:32:15;;;;;;;2.67;1.15;;;;;;;18.79;49.80;101640.84;7394227;19;20535;-64
2022/06/10 08:34:43;;;;;;;5.30;1.15;;;;;;;18.83;48.91;101639.78;7392964;19;20014;-66
2022/06/10 08:37:12;;;;;;;8.20;1.80;;;;;;;18.84;47.62;101644.16;7395178;19;20078;-66
2022/06/10 08:39:41;;;;;;;8.40;2.05;;;;;;;18.87;48.26;101646.72;7394724;19;20439;-66
2022/06/10 08:42:28;;;;;;;3.80;1.10;;;;;;;18.93;47.71;101646.50;7394017;19;20424;-66
2022/06/10 08:45:01;;;;;;;2.75;1.00;;;;;;;19.01;48.49;101641.69;7395369;19;20027;-65
2022/06/10 08:47:38;;;;;;;4.43;1.25;;;;;;;19.10;48.12;101647.56;7392860;19;20056;-66
2022/06/10 08:50:25;;;;;;;5.53;1.33;;;;;;;19.18;46.97;101645.41;7392666;19;20010;-66
2022/06/10 08:53:10;;;;;;;6.68;1.77;;;;;;;19.21;46.55;101645.28;7393132;19;20019;-66
2022/06/10 08:55:47;;;;;;;7.63;1.40;;;;;;;19.28;47.26;101641.41;7393533;19;20031;-66
2022/06/10 08:58:22;;;;;;;5.15;1.17;;;;;;;19.35;47.42;101642.88;7393787;19;20394;-66
2022/06/10 09:00:57;;;;;;;4.75;1.40;;;;;;;19.42;47.68;101653.25;7393029;19;20018;-66
2022/06/10 09:03:33;;;;;;;5.82;1.27;;;;;;;19.46;47.47;101650.38;7392732;19;20032;-66
2022/06/10 09:06:06;;;;;;;6.32;1.58;;;;;;;19.47;46.77;101659.22;7394277;19;20070;-66
2022/06/10 09:08:38;;;;;;;7.30;1.95;;;;;;;19.52;47.71;101651.91;7394862;19;20023;-65
2022/06/10 09:11:15;;;;;;;6.68;1.10;;;;;;;19.56;46.57;101644.63;7392637;19;20027;-66
2022/06/10 09:13:50;;;;;;;3.67;1.00;;;;;;;19.64;47.66;101656.66;7398895;19;20015;-66
2022/06/10 09:16:27;;;;;;;6.38;1.30;;;;;;;19.67;47.34;101640.53;7398005;19;20011;-66
2022/06/10 09:19:13;;;;;;;6.55;1.00;;;;;;;19.72;46.24;101634.16;7398206;19;20028;-66
2022/06/10 09:21:51;;;;;;;6.32;1.63;;;;;;;19.74;46.48;101638.50;7400799;19;20093;-65
2022/06/10 09:24:28;;;;;;;4.88;1.30;;;;;;;19.80;46.78;101626.66;7397802;19;20039;-65
2022/06/10 09:27:11;;;;;;;6.75;1.88;;;;;;;19.86;47.07;101629.09;7400436;19;20015;-65
2022/06/10 09:29:40;;;;;;;4.85;1.02;;;;;;;19.93;47.05;101642.97;7400036;19;20018;-66
2022/06/10 09:32:25;;;;;;;7.05;1.50;;;;;;;19.99;46.02;101635.56;7397990;19;20031;-66
2022/06/10 09:35:04;;;;;;;3.85;1.40;;;;;;;20.05;46.62;101630.88;7397988;19;20027;-66
2022/06/10 09:37:45;;;;;;;6.25;1.33;;;;;;;20.08;46.09;101631.59;7400723;19;20071;-66
2022/06/10 09:43:29;;;;;;;3.20;1.13;;;;;;;20.05;45.82;101638.88;7397777;19;20010;-65
2022/06/10 09:46:08;;;;;;;7.43;1.60;;;;;;;20.07;45.13;101634.31;7400943;19;20361;-66
2022/06/10 09:48:57;;;;;;;9.57;1.92;;;;;;;20.10;44.61;101647.50;7400339;19;20010;-69
2022/06/10 09:51:37;;;;;;;4.90;1.20;;;;;;;20.13;44.64;101634.91;7397922;19;20392;-69
2022/06/10 09:54:24;;;;;;;4.85;0.90;;;;;;;20.20;45.41;101629.28;7401584;19;20015;-69
2022/06/10 09:57:17;;;;;;;2.85;1.10;;;;;;;20.24;42.89;101621.06;7398558;19;20040;-70
2022/06/10 09:59:52;;;;;;;5.35;1.05;;;;;;;20.34;43.18;101643.66;7397333;19;20480;-71
2022/06/10 10:02:39;;;;;;;4.78;1.17;;;;;;;20.43;41.42;101631.69;7398874;19;20041;-70
2022/06/10 10:05:30;;;;;;;5.50;1.10;;;;;;;20.52;42.55;101609.03;7400034;19;20022;-71
2022/06/10 10:08:09;;;;;;;4.05;0.90;;;;;;;20.58;41.15;101627.38;7400142;19;20045;-71
2022/06/10 10:10:42;;;;;;;2.33;0.88;;;;;;;20.64;41.30;101624.41;7397784;19;20027;-70
2022/06/10 10:13:52;;;;;;;3.45;1.20;;;;;;;20.73;41.37;101622.28;7397802;19;20114;-72
2022/06/10 10:16:30;;;;;;;3.80;0.90;;;;;;;20.86;41.63;101615.34;7395757;19;20082;-69
2022/06/10 10:19:28;;;;;;;4.90;1.05;;;;;;;20.96;41.54;101621.09;7398573;19;20409;-70
2022/06/10 10:22:05;;;;;;;5.65;1.20;;;;;;;20.98;41.96;101609.41;7397455;19;20103;-71
2022/06/10 10:24:41;;;;;;;3.05;1.10;;;;;;;20.99;41.68;101612.91;7398056;19;20014;-71
2022/06/10 10:27:12;;;;;;;6.78;1.42;;;;;;;21.03;41.90;101605.63;7399180;19;20441;-70
2022/06/10 10:29:46;;;;;;;5.13;1.45;;;;;;;21.11;41.51;101600.75;7396246;19;20011;-69
2022/06/10 10:32:21;;;;;;;3.45;0.90;;;;;;;21.17;41.50;101605.78;7397437;19;20517;-70
2022/06/10 10:34:57;;;;;;;3.63;1.38;;;;;;;21.16;40.45;101606.72;7397218;19;20206;-70
2022/06/10 10:37:31;;;;;;;3.72;1.35;;;;;;;21.19;40.59;101603.03;7396700;19;20086;-70
2022/06/10 10:40:06;;;;;;;2.58;0.90;;;;;;;21.24;41.06;101599.16;7396292;19;20082;-70
2022/06/10 10:42:37;;;;;;;4.55;1.13;;;;;;;21.33;39.87;101605.81;7398802;19;20031;-71
2022/06/10 10:45:10;;;;;;;2.30;0.85;;;;;;;21.39;39.22;101600.13;7399142;19;20039;-70
2022/06/10 10:47:40;;;;;;;2.97;0.95;;;;;;;21.45;39.51;101599.81;7399408;19;20039;-70
2022/06/10 10:50:20;;;;;;;3.13;1.05;;;;;;;21.50;37.96;101610.25;7399522;19;20084;-70
2022/06/10 10:52:51;;;;;;;2.22;0.90;;;;;;;21.60;38.56;101607.97;7396724;19;20035;-71
2022/06/10 10:55:30;;;;;;;3.00;0.93;;;;;;;21.66;38.94;101602.31;7398407;19;20512;-70
2022/06/10 10:58:08;;;;;;;6.03;1.40;;;;;;;21.76;38.14;101592.84;7398824;19;20022;-69
2022/06/10 11:00:42;;;;;;;4.05;0.90;;;;;;;21.84;37.91;101594.19;7398761;19;20044;-69
2022/06/10 11:03:26;;;;;;;3.55;1.00;;;;;;;21.94;37.52;101606.13;7396240;19;20014;-70
2022/06/10 11:05:55;;;;;;;2.63;0.85;;;;;;;22.00;38.41;101594.19;7398443;19;20086;-70
2022/06/10 11:08:30;;;;;;;3.55;1.42;;;;;;;22.16;38.22;101603.06;7397823;19;20134;-70
2022/06/10 11:11:24;;;;;;;6.13;1.35;;;;;;;22.35;37.04;101578.81;7397925;19;20033;-70
2022/06/10 11:13:57;;;;;;;6.25;1.35;;;;;;;22.52;37.27;101579.66;7396910;19;20426;-69
2022/06/10 11:17:15;;;;;;;3.80;1.23;;;;;;;22.65;36.35;101590.53;7396392;19;20014;-71
2022/06/10 11:19:48;;;;;;;2.47;1.10;;;;;;;22.77;37.43;101587.97;7394717;19;20131;-71
2022/06/10 11:22:35;;;;;;;5.15;1.17;;;;;;;22.75;35.86;101595.22;7395594;19;20025;-71
2022/06/10 11:25:29;;;;;;;8.10;0.98;;;;;;;22.80;36.39;101597.63;7396479;19;20374;-70
2022/06/10 11:28:03;;;;;;;2.35;0.90;;;;;;;22.84;35.50;101583.09;7396544;19;20006;-71
2022/06/10 11:30:41;;;;;;;4.57;1.00;;;;;;;22.91;36.25;101579.09;7396119;19;20025;-70
2022/06/10 11:33:23;;;;;;;4.63;1.00;;;;;;;23.08;35.83;101578.06;7393897;19;20128;-71
2022/06/10 11:36:05;;;;;;;3.05;1.00;;;;;;;23.33;35.14;101581.06;7393754;19;20018;-71
2022/06/10 11:38:36;;;;;;;3.55;0.82;;;;;;;23.53;35.42;101567.28;7395324;19;20018;-69
2022/06/10 11:41:26;;;;;;;5.82;1.13;;;;;;;23.73;33.59;101568.69;7394739;19;20022;-70
2022/06/10 11:44:01;;;;;;;2.45;0.80;;;;;;;23.91;33.95;101560.44;7394231;19;20366;-70
2022/06/10 11:46:37;;;;;;;7.15;0.93;;;;;;;24.11;33.30;101566.31;7394699;19;20018;-70
2022/06/10 11:49:15;;;;;;;3.28;0.98;;;;;;;24.29;32.89;101564.22;7397839;19;20018;-71
2022/06/10 11:51:47;;;;;;;5.57;1.60;;;;;;;24.47;33.12;101560.28;7395135;19;20035;-71
2022/06/10 11:54:35;;;;;;;4.63;1.00;;;;;;;24.66;31.90;101554.56;7395595;19;20014;-71
2022/06/10 12:00:04;;;;;;;2.88;1.30;;;;;;;24.76;31.05;101549.44;7394980;19;20491;-71
2022/06/10 12:02:37;;;;;;;4.55;1.30;;;;;;;24.82;31.52;101557.06;7394587;19;20018;-71
2022/06/10 12:05:19;;;;;;;3.28;0.95;;;;;;;24.89;31.81;101552.97;7396865;19;20093;-70
2022/06/10 12:07:55;;;;;;;6.13;1.30;;;;;;;25.00;31.79;101544.16;7394703;19;20139;-71